sensor_id;sensor_type;location;lat;lon;timestamp;pressure;altitude;pressure_sealevel;temperature;humidity
9289;BME280;4683;50.864;12.086;2023-06-10T00:00:46;99029.59;;;19.17;100.00
9289;BME280;4683;50.864;12.086;2023-06-10T00:03:14;99032.72;;;19.14;100.00
9289;BME280;4683;50.864;12.086;2023-06-10T00:05:44;99028.38;;;18.84;100.00
9289;BME280;4683;50.864;12.086;2023-06-10T00:08:12;99033.03;;;18.77;100.00
9289;BME280;4683;50.864;12.086;2023-06-10T00:10:43;99034.31;;;18.86;100.00
9289;BME280;4683;50.864;12.086;2023-06-10T00:13:11;99021.03;;;18.91;100.00
9289;BME280;4683;50.864;12.086;2023-06-10T00:15:40;99019.03;;;18.98;100.00
9289;BME280;4683;50.864;12.086;2023-06-10T00:18:10;99013.19;;;18.73;100.00
9289;BME280;4683;50.864;12.086;2023-06-10T00:24:46;99027.81;;;18.82;100.00
9289;BME280;4683;50.864;12.086;2023-06-10T00:27:15;99023.41;;;18.76;100.00
9289;BME280;4683;50.864;12.086;2023-06-10T00:29:44;99025.94;;;18.71;100.00
9289;BME280;4683;50.864;12.086;2023-06-10T00:32:12;99027.59;;;18.72;100.00
9289;BME280;4683;50.864;12.086;2023-06-10T00:34:40;99023.13;;;18.66;100.00
9289;BME280;4683;50.864;12.086;2023-06-10T00:37:09;99028.84;;;18.69;100.00
9289;BME280;4683;50.864;12.086;2023-06-10T00:39:38;99028.97;;;18.74;100.00
9289;BME280;4683;50.864;12.086;2023-06-10T00:42:09;99030.59;;;18.40;100.00
9289;BME280;4683;50.864;12.086;2023-06-10T00:44:38;99027.91;;;18.29;100.00
9289;BME280;4683;50.864;12.086;2023-06-10T00:47:07;99030.19;;;18.02;100.00
9289;BME280;4683;50.864;12.086;2023-06-10T00:49:36;99026.69;;;17.89;100.00
9289;BME280;4683;50.864;12.086;2023-06-10T00:52:06;99033.09;;;18.00;100.00
9289;BME280;4683;50.864;12.086;2023-06-10T00:54:35;99028.13;;;18.15;100.00
9289;BME280;4683;50.864;12.086;2023-06-10T00:57:13;99029.88;;;18.33;100.00
9289;BME280;4683;50.864;12.086;2023-06-10T00:59:44;99025.47;;;18.39;100.00
9289;BME280;4683;50.864;12.086;2023-06-10T01:02:16;99030.69;;;18.34;100.00
9289;BME280;4683;50.864;12.086;2023-06-10T01:04:44;99024.91;;;18.37;100.00
9289;BME280;4683;50.864;12.086;2023-06-10T01:07:23;99026.38;;;18.21;100.00
9289;BME280;4683;50.864;12.086;2023-06-10T01:09:59;99019.28;;;17.91;100.00
9289;BME280;4683;50.864;12.086;2023-06-10T01:12:39;99022.59;;;17.75;100.00
9289;BME280;4683;50.864;12.086;2023-06-10T01:15:09;99027.47;;;17.78;100.00
9289;BME280;4683;50.864;12.086;2023-06-10T01:17:55;99033.56;;;17.67;100.00
9289;BME280;4683;50.864;12.086;2023-06-10T01:20:25;99031.56;;;17.81;100.00
9289;BME280;4683;50.864;12.086;2023-06-10T01:22:56;99025.53;;;17.85;100.00
9289;BME280;4683;50.864;12.086;2023-06-10T01:25:27;99021.84;;;17.68;100.00
9289;BME280;4683;50.864;12.086;2023-06-10T01:28:04;99027.94;;;17.57;100.00
9289;BME280;4683;50.864;12.086;2023-06-10T01:30:47;99028.25;;;17.48;100.00
9289;BME280;4683;50.864;12.086;2023-06-10T01:33:26;99030.53;;;17.33;100.00
9289;BME280;4683;50.864;12.086;2023-06-10T01:35:56;99028.59;;;17.40;100.00
9289;BME280;4683;50.864;12.086;2023-06-10T01:38:27;99020.88;;;17.50;100.00
9289;BME280;4683;50.864;12.086;2023-06-10T01:40:59;99027.75;;;17.58;100.00
9289;BME280;4683;50.864;12.086;2023-06-10T01:43:28;99021.06;;;17.67;100.00
9289;BME280;4683;50.864;12.086;2023-06-10T01:46:00;99025.78;;;17.65;100.00
9289;BME280;4683;50.864;12.086;2023-06-10T01:48:29;99036.53;;;17.77;100.00
9289;BME280;4683;50.864;12.086;2023-06-10T01:50:57;99032.13;;;17.83;100.00
9289;BME280;4683;50.864;12.086;2023-06-10T01:53:27;99035.84;;;17.93;100.00
9289;BME280;4683;50.864;12.086;2023-06-10T01:55:55;99043.19;;;17.98;100.00
9289;BME280;4683;50.864;12.086;2023-06-10T01:58:27;99052.47;;;17.95;100.00
9289;BME280;4683;50.864;12.086;2023-06-10T02:00:55;99065.34;;;17.98;100.00
9289;BME280;4683;50.864;12.086;2023-06-10T02:03:24;99065.72;;;18.02;100.00
9289;BME280;4683;50.864;12.086;2023-06-10T02:05:53;99063.28;;;18.00;100.00
9289;BME280;4683;50.864;12.086;2023-06-10T02:08:21;99055.03;;;18.02;100.00
9289;BME280;4683;50.864;12.086;2023-06-10T02:10:51;99059.13;;;18.05;100.00
9289;BME280;4683;50.864;12.086;2023-06-10T02:13:20;99067.69;;;18.07;100.00
9289;BME280;4683;50.864;12.086;2023-06-10T02:15:48;99056.19;;;18.06;100.00
9289;BME280;4683;50.864;12.086;2023-06-10T02:18:17;99058.06;;;18.06;100.00
9289;BME280;4683;50.864;12.086;2023-06-10T02:20:47;99058.19;;;17.99;100.00
9289;BME280;4683;50.864;12.086;2023-06-10T02:23:16;99051.88;;;17.93;100.00
9289;BME280;4683;50.864;12.086;2023-06-10T02:25:45;99046.91;;;17.97;100.00
9289;BME280;4683;50.864;12.086;2023-06-10T02:28:15;99050.97;;;17.99;100.00
9289;BME280;4683;50.864;12.086;2023-06-10T02:34:50;99062.97;;;17.79;100.00
9289;BME280;4683;50.864;12.086;2023-06-10T02:37:21;99066.25;;;17.81;100.00
9289;BME280;4683;50.864;12.086;2023-06-10T02:39:50;99058.25;;;17.81;100.00
9289;BME280;4683;50.864;12.086;2023-06-10T02:42:23;99059.13;;;17.74;100.00
9289;BME280;4683;50.864;12.086;2023-06-10T02:44:54;99058.28;;;17.62;100.00
9289;BME280;4683;50.864;12.086;2023-06-10T02:47:24;99067.97;;;17.57;100.00
9289;BME280;4683;50.864;12.086;2023-06-10T02:49:54;99068.44;;;17.54;100.00
9289;BME280;4683;50.864;12.086;2023-06-10T02:52:24;99065.59;;;17.48;100.00
9289;BME280;4683;50.864;12.086;2023-06-10T02:54:53;99070.25;;;17.53;100.00
9289;BME280;4683;50.864;12.086;2023-06-10T02:57:22;99071.53;;;17.50;100.00
9289;BME280;4683;50.864;12.086;2023-06-10T02:59:53;99077.81;;;17.56;100.00
9289;BME280;4683;50.864;12.086;2023-06-10T03:02:22;99082.59;;;17.54;100.00
9289;BME280;4683;50.864;12.086;2023-06-10T03:04:56;99078.38;;;17.46;100.00
9289;BME280;4683;50.864;12.086;2023-06-10T03:07:25;99088.59;;;17.49;100.00
9289;BME280;4683;50.864;12.086;2023-06-10T03:09:55;99092.22;;;17.55;100.00
9289;BME280;4683;50.864;12.086;2023-06-10T03:12:24;99107.41;;;17.55;100.00
9289;BME280;4683;50.864;12.086;2023-06-10T03:14:55;99105.16;;;17.52;100.00
9289;BME280;4683;50.864;12.086;2023-06-10T03:17:25;99108.47;;;17.35;100.00
9289;BME280;4683;50.864;12.086;2023-06-10T03:19:54;99108.66;;;17.34;100.00
9289;BME280;4683;50.864;12.086;2023-06-10T03:22:23;99102.81;;;17.25;100.00
9289;BME280;4683;50.864;12.086;2023-06-10T03:24:53;99103.88;;;17.24;100.00
9289;BME280;4683;50.864;12.086;2023-06-10T03:27:25;99107.13;;;17.26;100.00
9289;BME280;4683;50.864;12.086;2023-06-10T03:29:55;99112.97;;;17.16;100.00
9289;BME280;4683;50.864;12.086;2023-06-10T03:32:25;99111.44;;;17.27;100.00
9289;BME280;4683;50.864;12.086;2023-06-10T03:34:54;99118.28;;;17.35;100.00
9289;BME280;4683;50.864;12.086;2023-06-10T03:37:25;99124.00;;;17.38;100.00
9289;BME280;4683;50.864;12.086;2023-06-10T03:39:55;99113.47;;;17.43;100.00
9289;BME280;4683;50.864;12.086;2023-06-10T03:42:24;99113.47;;;17.43;100.00
9289;BME280;4683;50.864;12.086;2023-06-10T03:44:55;99112.38;;;17.51;100.00
9289;BME280;4683;50.864;12.086;2023-06-10T03:47:25;99124.66;;;17.52;100.00
9289;BME280;4683;50.864;12.086;2023-06-10T03:49:55;99127.56;;;17.50;100.00
9289;BME280;4683;50.864;12.086;2023-06-10T03:52:24;99125.94;;;17.49;100.00
9289;BME280;4683;50.864;12.086;2023-06-10T03:54:54;99127.28;;;17.40;100.00
9289;BME280;4683;50.864;12.086;2023-06-10T03:57:24;99122.53;;;17.42;100.00
9289;BME280;4683;50.864;12.086;2023-06-10T03:59:56;99131.94;;;17.45;100.00
9289;BME280;4683;50.864;12.086;2023-06-10T04:02:26;99120.38;;;17.33;100.00
9289;BME280;4683;50.864;12.086;2023-06-10T04:04:56;99128.81;;;17.30;100.00
9289;BME280;4683;50.864;12.086;2023-06-10T04:07:26;99134.81;;;17.25;100.00
9289;BME280;4683;50.864;12.086;2023-06-10T04:09:56;99125.34;;;17.29;100.00
9289;BME280;4683;50.864;12.086;2023-06-10T04:12:25;99130.97;;;17.39;100.00
9289;BME280;4683;50.864;12.086;2023-06-10T04:14:56;99132.47;;;17.54;100.00
9289;BME280;4683;50.864;12.086;2023-06-10T04:17:25;99132.72;;;17.64;100.00
9289;BME280;4683;50.864;12.086;2023-06-10T04:19:55;99128.06;;;17.78;100.00
9289;BME280;4683;50.864;12.086;2023-06-10T04:22:25;99135.03;;;18.09;100.00
9289;BME280;4683;50.864;12.086;2023-06-10T04:24:58;99132.88;;;18.29;100.00
9289;BME280;4683;50.864;12.086;2023-06-10T04:27:27;99137.47;;;18.64;100.00
9289;BME280;4683;50.864;12.086;2023-06-10T04:29:58;99136.13;;;19.08;100.00
9289;BME280;4683;50.864;12.086;2023-06-10T04:32:28;99131.78;;;19.31;100.00
9289;BME280;4683;50.864;12.086;2023-06-10T04:34:59;99138.50;;;19.33;100.00
9289;BME280;4683;50.864;12.086;2023-06-10T04:37:29;99134.06;;;19.62;100.00
9289;BME280;4683;50.864;12.086;2023-06-10T04:39:58;99129.16;;;19.99;100.00
9289;BME280;4683;50.864;12.086;2023-06-10T04:42:28;99131.94;;;20.21;100.00
9289;BME280;4683;50.864;12.086;2023-06-10T04:44:59;99134.28;;;20.35;100.00
9289;BME280;4683;50.864;12.086;2023-06-10T04:47:30;99134.88;;;20.37;100.00
9289;BME280;4683;50.864;12.086;2023-06-10T04:50:00;99141.81;;;20.49;100.00
9289;BME280;4683;50.864;12.086;2023-06-10T04:52:32;99143.94;;;20.19;100.00
9289;BME280;4683;50.864;12.086;2023-06-10T04:55:03;99144.91;;;20.13;100.00
9289;BME280;4683;50.864;12.086;2023-06-10T04:57:33;99140.28;;;20.25;100.00
9289;BME280;4683;50.864;12.086;2023-06-10T05:00:07;99133.00;;;20.37;100.00
9289;BME280;4683;50.864;12.086;2023-06-10T05:02:36;99146.81;;;20.46;100.00
9289;BME280;4683;50.864;12.086;2023-06-10T05:05:06;99146.38;;;20.49;100.00
9289;BME280;4683;50.864;12.086;2023-06-10T05:07:36;99147.78;;;20.23;100.00
9289;BME280;4683;50.864;12.086;2023-06-10T05:10:07;99148.91;;;20.27;100.00
9289;BME280;4683;50.864;12.086;2023-06-10T05:12:36;99147.19;;;20.21;100.00
9289;BME280;4683;50.864;12.086;2023-06-10T05:15:11;99136.22;;;20.68;100.00
9289;BME280;4683;50.864;12.086;2023-06-10T05:17:42;99143.53;;;20.56;100.00
9289;BME280;4683;50.864;12.086;2023-06-10T05:20:12;99139.38;;;20.65;100.00
9289;BME280;4683;50.864;12.086;2023-06-10T05:22:42;99157.81;;;20.78;100.00
9289;BME280;4683;50.864;12.086;2023-06-10T05:25:12;99144.56;;;20.88;100.00
9289;BME280;4683;50.864;12.086;2023-06-10T05:27:42;99140.47;;;21.02;100.00
9289;BME280;4683;50.864;12.086;2023-06-10T05:30:14;99139.38;;;21.37;100.00
9289;BME280;4683;50.864;12.086;2023-06-10T05:32:46;99142.47;;;21.73;100.00
9289;BME280;4683;50.864;12.086;2023-06-10T05:35:16;99147.97;;;21.83;100.00
9289;BME280;4683;50.864;12.086;2023-06-10T05:37:46;99155.63;;;22.18;100.00
9289;BME280;4683;50.864;12.086;2023-06-10T05:40:19;99150.84;;;21.98;100.00
9289;BME280;4683;50.864;12.086;2023-06-10T05:42:48;99151.34;;;21.51;100.00
9289;BME280;4683;50.864;12.086;2023-06-10T05:45:19;99150.03;;;21.32;100.00
9289;BME280;4683;50.864;12.086;2023-06-10T05:47:49;99145.31;;;21.22;100.00
9289;BME280;4683;50.864;12.086;2023-06-10T05:50:19;99135.31;;;21.18;100.00
9289;BME280;4683;50.864;12.086;2023-06-10T05:52:48;99144.00;;;21.03;100.00
9289;BME280;4683;50.864;12.086;2023-06-10T05:55:18;99139.44;;;21.03;100.00
9289;BME280;4683;50.864;12.086;2023-06-10T05:57:56;99149.69;;;20.73;100.00
9289;BME280;4683;50.864;12.086;2023-06-10T06:00:29;99144.97;;;20.80;100.00
9289;BME280;4683;50.864;12.086;2023-06-10T06:03:01;99154.63;;;20.98;100.00
9289;BME280;4683;50.864;12.086;2023-06-10T06:05:31;99159.44;;;20.79;100.00
9289;BME280;4683;50.864;12.086;2023-06-10T06:08:05;99151.38;;;20.79;100.00
9289;BME280;4683;50.864;12.086;2023-06-10T06:10:34;99158.03;;;20.93;100.00
9289;BME280;4683;50.864;12.086;2023-06-10T06:13:04;99155.69;;;20.97;100.00
9289;BME280;4683;50.864;12.086;2023-06-10T06:15:37;99163.19;;;20.78;100.00
9289;BME280;4683;50.864;12.086;2023-06-10T06:18:07;99158.28;;;20.75;100.00
9289;BME280;4683;50.864;12.086;2023-06-10T06:20:37;99153.84;;;20.81;100.00
9289;BME280;4683;50.864;12.086;2023-06-10T06:23:10;99169.69;;;20.65;100.00
9289;BME280;4683;50.864;12.086;2023-06-10T06:25:39;99164.63;;;20.52;100.00
9289;BME280;4683;50.864;12.086;2023-06-10T06:28:09;99167.91;;;20.54;100.00
9289;BME280;4683;50.864;12.086;2023-06-10T06:30:43;99166.59;;;20.28;100.00
9289;BME280;4683;50.864;12.086;2023-06-10T06:33:13;99171.00;;;20.34;100.00
9289;BME280;4683;50.864;12.086;2023-06-10T06:35:43;99166.78;;;20.21;100.00
9289;BME280;4683;50.864;12.086;2023-06-10T06:38:12;99169.75;;;20.25;100.00
9289;BME280;4683;50.864;12.086;2023-06-10T06:40:43;99173.53;;;20.41;100.00
9289;BME280;4683;50.864;12.086;2023-06-10T06:43:13;99170.19;;;20.62;100.00
9289;BME280;4683;50.864;12.086;2023-06-10T06:45:46;99167.06;;;20.87;100.00
9289;BME280;4683;50.864;12.086;2023-06-10T06:48:16;99158.22;;;21.03;100.00
9289;BME280;4683;50.864;12.086;2023-06-10T06:50:46;99166.00;;;21.05;100.00
9289;BME280;4683;50.864;12.086;2023-06-10T06:53:16;99166.09;;;20.93;100.00
9289;BME280;4683;50.864;12.086;2023-06-10T06:55:45;99173.09;;;20.94;100.00
9289;BME280;4683;50.864;12.086;2023-06-10T06:58:15;99171.16;;;20.90;100.00
9289;BME280;4683;50.864;12.086;2023-06-10T07:00:47;99171.19;;;21.12;100.00
9289;BME280;4683;50.864;12.086;2023-06-10T07:03:18;99181.31;;;21.43;100.00
9289;BME280;4683;50.864;12.086;2023-06-10T07:05:48;99178.25;;;21.57;100.00
9289;BME280;4683;50.864;12.086;2023-06-10T07:08:18;99179.97;;;21.63;100.00
9289;BME280;4683;50.864;12.086;2023-06-10T07:10:49;99181.91;;;21.67;100.00
9289;BME280;4683;50.864;12.086;2023-06-10T07:13:19;99185.56;;;21.83;100.00
9289;BME280;4683;50.864;12.086;2023-06-10T07:15:54;99182.22;;;21.98;100.00
9289;BME280;4683;50.864;12.086;2023-06-10T07:18:26;99186.75;;;21.92;100.00
9289;BME280;4683;50.864;12.086;2023-06-10T07:20:57;99184.16;;;22.02;100.00
9289;BME280;4683;50.864;12.086;2023-06-10T07:23:27;99182.81;;;22.00;100.00
9289;BME280;4683;50.864;12.086;2023-06-10T07:25:59;99188.88;;;22.12;100.00
9289;BME280;4683;50.864;12.086;2023-06-10T07:28:30;99197.81;;;22.18;100.00
9289;BME280;4683;50.864;12.086;2023-06-10T07:31:03;99187.47;;;22.32;100.00
9289;BME280;4683;50.864;12.086;2023-06-10T07:33:35;99185.94;;;22.41;100.00
9289;BME280;4683;50.864;12.086;2023-06-10T07:36:04;99187.59;;;22.47;100.00
9289;BME280;4683;50.864;12.086;2023-06-10T07:38:36;99183.06;;;22.52;100.00
9289;BME280;4683;50.864;12.086;2023-06-10T07:41:07;99183.00;;;22.74;100.00
9289;BME280;4683;50.864;12.086;2023-06-10T07:43:39;99191.78;;;22.65;100.00
9289;BME280;4683;50.864;12.086;2023-06-10T07:46:11;99190.38;;;22.57;100.00
9289;BME280;4683;50.864;12.086;2023-06-10T07:48:41;99185.72;;;22.47;100.00
9289;BME280;4683;50.864;12.086;2023-06-10T07:51:12;99190.47;;;22.67;100.00
9289;BME280;4683;50.864;12.086;2023-06-10T07:53:43;99194.09;;;22.83;100.00
9289;BME280;4683;50.864;12.086;2023-06-10T07:56:12;99188.00;;;22.93;100.00
9289;BME280;4683;50.864;12.086;2023-06-10T07:58:42;99188.34;;;23.07;100.00
9289;BME280;4683;50.864;12.086;2023-06-10T08:01:15;99194.66;;;22.85;100.00
9289;BME280;4683;50.864;12.086;2023-06-10T08:03:46;99186.59;;;22.85;100.00
9289;BME280;4683;50.864;12.086;2023-06-10T08:06:15;99181.19;;;22.85;100.00
9289;BME280;4683;50.864;12.086;2023-06-10T08:08:50;99180.41;;;22.85;100.00
9289;BME280;4683;50.864;12.086;2023-06-10T08:11:21;99185.69;;;22.74;100.00
9289;BME280;4683;50.864;12.086;2023-06-10T08:13:52;99179.38;;;22.91;100.00
9289;BME280;4683;50.864;12.086;2023-06-10T08:16:26;99172.56;;;23.20;100.00
9289;BME280;4683;50.864;12.086;2023-06-10T08:19:00;99180.97;;;23.29;100.00
9289;BME280;4683;50.864;12.086;2023-06-10T08:21:30;99175.34;;;23.36;100.00
9289;BME280;4683;50.864;12.086;2023-06-10T08:24:01;99182.47;;;23.10;100.00
9289;BME280;4683;50.864;12.086;2023-06-10T08:26:31;99185.13;;;23.04;100.00
9289;BME280;4683;50.864;12.086;2023-06-10T08:29:02;99178.72;;;23.16;100.00
9289;BME280;4683;50.864;12.086;2023-06-10T08:31:33;99181.25;;;23.33;100.00
9289;BME280;4683;50.864;12.086;2023-06-10T08:34:06;99187.94;;;23.67;100.00
9289;BME280;4683;50.864;12.086;2023-06-10T08:36:36;99186.97;;;23.99;100.00
9289;BME280;4683;50.864;12.086;2023-06-10T08:39:06;99181.56;;;23.94;100.00
9289;BME280;4683;50.864;12.086;2023-06-10T08:41:40;99185.06;;;23.99;100.00
9289;BME280;4683;50.864;12.086;2023-06-10T08:44:21;99179.69;;;24.10;100.00
9289;BME280;4683;50.864;12.086;2023-06-10T08:47:00;99183.47;;;23.98;100.00
9289;BME280;4683;50.864;12.086;2023-06-10T08:49:32;99179.19;;;24.23;100.00
9289;BME280;4683;50.864;12.086;2023-06-10T08:52:05;99182.50;;;24.45;100.00
9289;BME280;4683;50.864;12.086;2023-06-10T08:54:38;99173.75;;;24.02;100.00
9289;BME280;4683;50.864;12.086;2023-06-10T08:57:12;99174.31;;;24.15;100.00
9289;BME280;4683;50.864;12.086;2023-06-10T08:59:42;99176.50;;;24.28;100.00
9289;BME280;4683;50.864;12.086;2023-06-10T09:02:16;99177.56;;;24.22;100.00
9289;BME280;4683;50.864;12.086;2023-06-10T09:04:52;99179.78;;;24.66;100.00
9289;BME280;4683;50.864;12.086;2023-06-10T09:07:22;99187.03;;;25.06;98.45
9289;BME280;4683;50.864;12.086;2023-06-10T09:09:54;99182.44;;;25.06;98.70
9289;BME280;4683;50.864;12.086;2023-06-10T09:12:24;99177.59;;;24.93;99.23
9289;BME280;4683;50.864;12.086;2023-06-10T09:14:58;99180.31;;;24.88;99.25
9289;BME280;4683;50.864;12.086;2023-06-10T09:17:30;99169.50;;;24.88;100.00
9289;BME280;4683;50.864;12.086;2023-06-10T09:20:01;99173.59;;;24.65;100.00
9289;BME280;4683;50.864;12.086;2023-06-10T09:22:31;99173.84;;;24.94;100.00
9289;BME280;4683;50.864;12.086;2023-06-10T09:25:04;99179.22;;;25.04;98.76
9289;BME280;4683;50.864;12.086;2023-06-10T09:27:49;99176.53;;;24.99;98.55
9289;BME280;4683;50.864;12.086;2023-06-10T09:30:28;99175.19;;;24.51;100.00
9289;BME280;4683;50.864;12.086;2023-06-10T09:33:01;99173.81;;;25.20;100.00
9289;BME280;4683;50.864;12.086;2023-06-10T09:35:33;99185.66;;;25.39;98.55
9289;BME280;4683;50.864;12.086;2023-06-10T09:38:04;99187.88;;;25.12;100.00
9289;BME280;4683;50.864;12.086;2023-06-10T09:40:33;99171.34;;;25.34;99.43
9289;BME280;4683;50.864;12.086;2023-06-10T09:43:17;99173.41;;;25.67;96.58
9289;BME280;4683;50.864;12.086;2023-06-10T09:45:50;99187.78;;;25.47;96.90
9289;BME280;4683;50.864;12.086;2023-06-10T09:48:23;99181.66;;;25.16;99.81
9289;BME280;4683;50.864;12.086;2023-06-10T09:50:54;99174.38;;;25.22;100.00
9289;BME280;4683;50.864;12.086;2023-06-10T09:53:27;99167.81;;;25.48;99.65
9289;BME280;4683;50.864;12.086;2023-06-10T09:55:58;99170.38;;;25.84;95.78
9289;BME280;4683;50.864;12.086;2023-06-10T09:58:39;99170.56;;;25.98;93.94
9289;BME280;4683;50.864;12.086;2023-06-10T10:01:13;99168.28;;;26.15;92.08
9289;BME280;4683;50.864;12.086;2023-06-10T10:03:49;99168.63;;;26.09;91.28
9289;BME280;4683;50.864;12.086;2023-06-10T10:06:21;99168.91;;;26.02;92.59
9289;BME280;4683;50.864;12.086;2023-06-10T10:08:52;99163.72;;;26.11;92.18
9289;BME280;4683;50.864;12.086;2023-06-10T10:11:23;99162.34;;;26.58;87.27
9289;BME280;4683;50.864;12.086;2023-06-10T10:13:55;99170.75;;;26.56;86.66
9289;BME280;4683;50.864;12.086;2023-06-10T10:16:33;99161.91;;;26.40;88.94
9289;BME280;4683;50.864;12.086;2023-06-10T10:19:11;99153.38;;;26.62;85.72
9289;BME280;4683;50.864;12.086;2023-06-10T10:21:47;99164.56;;;26.50;86.76
9289;BME280;4683;50.864;12.086;2023-06-10T10:24:22;99161.03;;;26.84;85.66
9289;BME280;4683;50.864;12.086;2023-06-10T10:26:59;99158.28;;;26.89;85.94
9289;BME280;4683;50.864;12.086;2023-06-10T10:33:36;99142.59;;;27.15;82.83
9289;BME280;4683;50.864;12.086;2023-06-10T10:36:12;99135.00;;;26.88;85.75
9289;BME280;4683;50.864;12.086;2023-06-10T10:38:46;99139.47;;;27.03;85.88
9289;BME280;4683;50.864;12.086;2023-06-10T10:41:20;99135.28;;;27.16;83.07
9289;BME280;4683;50.864;12.086;2023-06-10T10:43:51;99129.41;;;27.09;85.14
9289;BME280;4683;50.864;12.086;2023-06-10T10:46:21;99130.09;;;27.19;86.25
9289;BME280;4683;50.864;12.086;2023-06-10T10:48:54;99136.09;;;27.40;81.77
9289;BME280;4683;50.864;12.086;2023-06-10T10:51:26;99139.16;;;27.10;83.71
9289;BME280;4683;50.864;12.086;2023-06-10T10:54:15;99132.63;;;27.11;82.66
9289;BME280;4683;50.864;12.086;2023-06-10T10:57:16;99136.69;;;26.11;92.19
9289;BME280;4683;50.864;12.086;2023-06-10T10:59:55;99131.00;;;26.51;90.47
9289;BME280;4683;50.864;12.086;2023-06-10T11:02:41;99124.63;;;27.24;85.07
9289;BME280;4683;50.864;12.086;2023-06-10T11:05:15;99118.41;;;27.67;82.53
9289;BME280;4683;50.864;12.086;2023-06-10T11:07:56;99120.44;;;27.80;78.24
9289;BME280;4683;50.864;12.086;2023-06-10T11:10:33;99117.63;;;28.04;79.65
9289;BME280;4683;50.864;12.086;2023-06-10T11:13:08;99124.88;;;28.27;68.65
9289;BME280;4683;50.864;12.086;2023-06-10T11:15:45;99125.13;;;28.12;67.67
9289;BME280;4683;50.864;12.086;2023-06-10T11:18:21;99126.31;;;27.63;63.61
9289;BME280;4683;50.864;12.086;2023-06-10T11:20:59;99116.22;;;28.06;62.50
9289;BME280;4683;50.864;12.086;2023-06-10T11:23:41;99116.69;;;28.14;59.07
9289;BME280;4683;50.864;12.086;2023-06-10T11:26:32;99123.38;;;28.02;59.18
9289;BME280;4683;50.864;12.086;2023-06-10T11:29:09;99115.22;;;28.02;57.19
9289;BME280;4683;50.864;12.086;2023-06-10T11:31:45;99122.81;;;28.38;54.90
9289;BME280;4683;50.864;12.086;2023-06-10T11:34:22;99116.91;;;28.36;53.21
9289;BME280;4683;50.864;12.086;2023-06-10T11:36:56;99103.50;;;28.59;52.40
9289;BME280;4683;50.864;12.086;2023-06-10T11:39:30;99096.50;;;28.85;50.87
9289;BME280;4683;50.864;12.086;2023-06-10T11:41:59;99104.69;;;29.13;50.43
9289;BME280;4683;50.864;12.086;2023-06-10T11:44:30;99088.47;;;29.35;49.40
9289;BME280;4683;50.864;12.086;2023-06-10T11:47:02;99088.06;;;29.55;49.43
9289;BME280;4683;50.864;12.086;2023-06-10T11:49:33;99095.91;;;29.71;49.58
9289;BME280;4683;50.864;12.086;2023-06-10T11:52:06;99095.63;;;29.31;49.33
9289;BME280;4683;50.864;12.086;2023-06-10T11:54:37;99100.22;;;28.89;47.21
9289;BME280;4683;50.864;12.086;2023-06-10T11:57:08;99096.16;;;28.73;47.96
9289;BME280;4683;50.864;12.086;2023-06-10T11:59:38;99111.47;;;28.82;47.09
9289;BME280;4683;50.864;12.086;2023-06-10T12:02:16;99117.09;;;28.72;47.40
9289;BME280;4683;50.864;12.086;2023-06-10T12:04:46;99112.22;;;28.55;48.12
9289;BME280;4683;50.864;12.086;2023-06-10T12:07:20;99107.53;;;28.75;47.92
9289;BME280;4683;50.864;12.086;2023-06-10T12:10:02;99109.34;;;28.93;47.51
9289;BME280;4683;50.864;12.086;2023-06-10T12:12:31;99108.09;;;29.18;47.92
9289;BME280;4683;50.864;12.086;2023-06-10T12:15:07;99103.09;;;29.25;47.80
9289;BME280;4683;50.864;12.086;2023-06-10T12:17:43;99098.03;;;29.19;48.12
9289;BME280;4683;50.864;12.086;2023-06-10T12:20:28;99103.25;;;29.01;48.61
9289;BME280;4683;50.864;12.086;2023-06-10T12:23:07;99090.16;;;28.90;49.15
9289;BME280;4683;50.864;12.086;2023-06-10T12:25:43;99106.09;;;29.10;48.50
9289;BME280;4683;50.864;12.086;2023-06-10T12:28:22;99095.25;;;28.64;48.91
9289;BME280;4683;50.864;12.086;2023-06-10T12:31:07;99095.63;;;29.03;46.94
9289;BME280;4683;50.864;12.086;2023-06-10T12:33:38;99092.50;;;29.10;46.12
9289;BME280;4683;50.864;12.086;2023-06-10T12:36:16;99091.31;;;29.30;46.11
9289;BME280;4683;50.864;12.086;2023-06-10T12:38:48;99095.63;;;29.31;45.59
9289;BME280;4683;50.864;12.086;2023-06-10T12:41:20;99078.91;;;29.10;45.72
9289;BME280;4683;50.864;12.086;2023-06-10T12:43:54;99101.47;;;28.31;47.15
9289;BME280;4683;50.864;12.086;2023-06-10T12:46:37;99091.28;;;28.42;46.06
9289;BME280;4683;50.864;12.086;2023-06-10T12:49:08;99090.00;;;28.53;46.35
9289;BME280;4683;50.864;12.086;2023-06-10T12:51:48;99083.00;;;28.80;46.44
9289;BME280;4683;50.864;12.086;2023-06-10T12:54:19;99081.25;;;29.17;45.67
9289;BME280;4683;50.864;12.086;2023-06-10T12:56:52;99074.00;;;29.26;46.15
9289;BME280;4683;50.864;12.086;2023-06-10T12:59:22;99074.47;;;29.55;44.88
9289;BME280;4683;50.864;12.086;2023-06-10T13:01:52;99082.91;;;29.68;44.65
9289;BME280;4683;50.864;12.086;2023-06-10T13:04:23;99073.03;;;29.72;44.30
9289;BME280;4683;50.864;12.086;2023-06-10T13:06:53;99079.69;;;29.88;44.14
9289;BME280;4683;50.864;12.086;2023-06-10T13:09:23;99075.66;;;29.99;43.79
9289;BME280;4683;50.864;12.086;2023-06-10T13:11:54;99073.59;;;30.05;43.39
9289;BME280;4683;50.864;12.086;2023-06-10T13:14:24;99088.66;;;30.02;42.81
9289;BME280;4683;50.864;12.086;2023-06-10T13:16:53;99074.34;;;29.97;42.77
9289;BME280;4683;50.864;12.086;2023-06-10T13:19:23;99069.06;;;30.14;42.61
9289;BME280;4683;50.864;12.086;2023-06-10T13:21:53;99072.56;;;30.15;42.79
9289;BME280;4683;50.864;12.086;2023-06-10T13:24:23;99068.59;;;29.98;43.56
9289;BME280;4683;50.864;12.086;2023-06-10T13:26:56;99078.13;;;30.32;43.15
9289;BME280;4683;50.864;12.086;2023-06-10T13:29:25;99069.97;;;30.32;43.26
9289;BME280;4683;50.864;12.086;2023-06-10T13:31:55;99074.63;;;30.63;43.11
9289;BME280;4683;50.864;12.086;2023-06-10T13:34:25;99074.25;;;30.78;42.05
9289;BME280;4683;50.864;12.086;2023-06-10T13:36:55;99074.09;;;30.52;42.76
9289;BME280;4683;50.864;12.086;2023-06-10T13:39:26;99066.63;;;29.90;44.26